createdAt,value
2023-05-22T00:00:27.492Z,3.50
2023-05-22T00:03:15.715Z,3.20
2023-05-22T00:05:44.118Z,3.10
2023-05-22T00:08:12.625Z,3.80
2023-05-22T00:10:41.005Z,3.20
2023-05-22T00:13:09.592Z,3.00
2023-05-22T00:15:37.849Z,3.30
2023-05-22T00:18:06.733Z,3.20
2023-05-22T00:20:39.437Z,2.50
2023-05-22T00:23:11.393Z,2.90
2023-05-22T00:25:41.269Z,2.80
2023-05-22T00:28:11.545Z,3.00
2023-05-22T00:30:39.997Z,2.30
2023-05-22T00:33:08.608Z,2.80
2023-05-22T00:35:37.122Z,2.40
2023-05-22T00:38:06.513Z,3.00
2023-05-22T00:40:35.210Z,3.00
2023-05-22T00:43:08.665Z,3.00
2023-05-22T00:45:37.196Z,2.80
2023-05-22T00:48:09.887Z,2.50
2023-05-22T00:50:38.508Z,2.70
2023-05-22T00:53:08.550Z,2.80
2023-05-22T00:55:37.287Z,2.80
2023-05-22T00:58:07.911Z,2.60
2023-05-22T01:00:37.704Z,3.20
2023-05-22T01:03:10.385Z,2.70
2023-05-22T01:05:40.767Z,2.80
2023-05-22T01:08:09.669Z,2.90
2023-05-22T01:10:40.194Z,2.80
2023-05-22T01:13:19.015Z,2.70
2023-05-22T01:15:57.496Z,2.50
2023-05-22T01:18:44.039Z,2.40
2023-05-22T01:21:22.343Z,3.30
2023-05-22T01:24:12.331Z,2.90
2023-05-22T01:26:51.340Z,2.70
2023-05-22T01:29:41.620Z,2.80
2023-05-22T01:32:13.368Z,3.80
2023-05-22T01:34:45.751Z,3.10
2023-05-22T01:37:15.476Z,2.80
2023-05-22T01:39:44.497Z,2.50
2023-05-22T01:42:13.027Z,2.70
2023-05-22T01:44:42.052Z,2.50
2023-05-22T01:47:13.182Z,2.80
2023-05-22T01:49:42.905Z,2.80
2023-05-22T01:52:22.815Z,2.50
2023-05-22T01:55:03.939Z,3.20
2023-05-22T01:57:39.430Z,3.00
2023-05-22T02:00:14.293Z,3.30
2023-05-22T02:03:12.550Z,3.40
2023-05-22T02:05:41.818Z,3.40
2023-05-22T02:08:12.324Z,2.90
2023-05-22T02:10:45.155Z,3.30
2023-05-22T02:13:13.664Z,2.90
2023-05-22T02:15:45.856Z,2.60
2023-05-22T02:18:14.358Z,2.50
2023-05-22T02:20:46.760Z,2.50
2023-05-22T02:23:15.414Z,2.30
2023-05-22T02:25:43.803Z,2.40
2023-05-22T02:28:12.214Z,3.50
2023-05-22T02:30:40.869Z,3.70
2023-05-22T02:33:11.603Z,3.10
2023-05-22T02:35:39.877Z,3.40
2023-05-22T02:38:08.081Z,2.90
2023-05-22T02:40:36.679Z,3.20
2023-05-22T02:43:05.768Z,3.00
2023-05-22T02:45:34.313Z,2.90
2023-05-22T02:48:03.952Z,2.80
2023-05-22T02:50:33.587Z,3.40
2023-05-22T02:53:01.867Z,3.20
2023-05-22T02:55:30.092Z,2.70
2023-05-22T02:57:58.323Z,3.50
2023-05-22T03:00:26.748Z,3.00
2023-05-22T03:02:56.510Z,3.00
2023-05-22T03:05:24.992Z,2.90
2023-05-22T03:07:53.297Z,2.90
2023-05-22T03:10:22.512Z,2.60
2023-05-22T03:12:54.008Z,3.80
2023-05-22T03:15:22.587Z,3.30
2023-05-22T03:17:51.558Z,3.40
2023-05-22T03:20:23.405Z,2.60
2023-05-22T03:22:51.920Z,2.80
2023-05-22T03:25:22.218Z,2.90
2023-05-22T03:27:51.409Z,3.10
2023-05-22T03:30:20.545Z,3.20
2023-05-22T03:32:58.334Z,2.80
2023-05-22T03:35:26.820Z,3.50
2023-05-22T03:37:55.413Z,3.90
2023-05-22T03:40:23.722Z,3.40
2023-05-22T03:42:52.582Z,3.50
2023-05-22T03:45:21.191Z,4.40
2023-05-22T03:47:50.098Z,4.90
2023-05-22T03:50:22.158Z,4.20
2023-05-22T03:52:50.721Z,4.30
2023-05-22T03:55:19.014Z,4.10
2023-05-22T03:57:48.102Z,4.20
2023-05-22T04:00:19.640Z,4.80
2023-05-22T04:02:48.012Z,5.10
2023-05-22T04:05:16.958Z,6.20
2023-05-22T04:07:45.331Z,10.00
2023-05-22T04:10:13.751Z,6.30
2023-05-22T04:12:42.204Z,5.00
2023-05-22T04:15:10.586Z,4.40
2023-05-22T04:17:41.561Z,4.30
2023-05-22T04:20:11.460Z,4.50
2023-05-22T04:22:41.444Z,4.00
2023-05-22T04:25:11.301Z,4.10
2023-05-22T04:27:40.425Z,3.90
2023-05-22T04:30:10.660Z,3.90
2023-05-22T04:32:41.158Z,4.60
2023-05-22T04:35:12.306Z,4.00
2023-05-22T04:37:45.743Z,3.70
2023-05-22T04:40:15.613Z,4.20
2023-05-22T04:42:44.744Z,4.90
2023-05-22T04:45:14.326Z,3.90
2023-05-22T04:47:43.234Z,4.70
2023-05-22T04:50:12.185Z,4.60
2023-05-22T04:52:41.051Z,4.70
2023-05-22T04:55:12.202Z,6.50
2023-05-22T04:57:41.410Z,5.10
2023-05-22T05:00:10.907Z,4.80
2023-05-22T05:02:41.522Z,4.30
2023-05-22T05:05:11.722Z,4.80
2023-05-22T05:07:40.572Z,4.20
2023-05-22T05:10:10.740Z,3.50
2023-05-22T05:12:41.542Z,4.60
2023-05-22T05:15:10.299Z,4.40
2023-05-22T05:17:38.566Z,4.60
2023-05-22T05:20:10.613Z,4.10
2023-05-22T05:22:40.470Z,4.20
2023-05-22T05:25:11.557Z,4.40
2023-05-22T05:27:46.023Z,4.10
2023-05-22T05:33:10.671Z,3.70
2023-05-22T05:35:54.051Z,3.60
2023-05-22T05:38:26.121Z,4.10
2023-05-22T05:40:56.352Z,4.00
2023-05-22T05:43:25.792Z,3.70
2023-05-22T05:45:57.656Z,4.20
2023-05-22T05:48:26.114Z,3.70
2023-05-22T05:50:55.481Z,4.10
2023-05-22T05:53:24.284Z,3.40
2023-05-22T05:55:57.557Z,3.70
2023-05-22T05:58:26.835Z,3.70
2023-05-22T06:01:15.256Z,3.60
2023-05-22T06:03:43.995Z,3.20
2023-05-22T06:06:15.916Z,3.50
2023-05-22T06:09:22.751Z,4.10
2023-05-22T06:12:30.047Z,3.70
2023-05-22T06:14:58.230Z,2.90
2023-05-22T06:17:27.643Z,3.90
2023-05-22T06:19:56.118Z,4.30
2023-05-22T06:22:26.449Z,3.30
2023-05-22T06:24:55.985Z,3.10
2023-05-22T06:27:27.807Z,3.70
2023-05-22T06:29:56.971Z,3.10
2023-05-22T06:32:27.456Z,2.60
2023-05-22T06:34:55.769Z,2.70
2023-05-22T06:37:24.138Z,3.20
2023-05-22T06:39:54.048Z,3.20
2023-05-22T06:42:43.816Z,3.30
2023-05-22T06:45:32.546Z,3.10
2023-05-22T06:48:20.193Z,3.30
2023-05-22T06:51:03.198Z,3.80
2023-05-22T06:53:32.212Z,2.90
2023-05-22T06:56:00.602Z,3.20
2023-05-22T06:58:42.102Z,3.80
2023-05-22T07:01:10.618Z,3.30
2023-05-22T07:03:44.125Z,2.80
2023-05-22T07:06:39.471Z,3.40
2023-05-22T07:09:09.101Z,3.70
2023-05-22T07:11:37.960Z,3.50
2023-05-22T07:14:06.044Z,3.30
2023-05-22T07:16:34.480Z,3.50
2023-05-22T07:19:03.605Z,3.50
2023-05-22T07:21:32.717Z,2.80
2023-05-22T07:24:08.809Z,4.30
2023-05-22T07:26:46.760Z,4.10
2023-05-22T07:29:17.460Z,3.60
2023-05-22T07:31:48.748Z,3.50
2023-05-22T07:34:17.585Z,4.70
2023-05-22T07:36:49.107Z,3.90
2023-05-22T07:39:18.142Z,3.40
2023-05-22T07:41:52.918Z,4.00
2023-05-22T07:44:23.601Z,4.00
2023-05-22T07:46:54.069Z,3.20
2023-05-22T07:49:26.436Z,2.80
2023-05-22T07:51:54.844Z,3.10
2023-05-22T07:54:25.363Z,2.90
2023-05-22T07:56:57.705Z,3.60
2023-05-22T07:59:26.086Z,3.10
2023-05-22T08:01:58.425Z,3.50
2023-05-22T08:04:27.929Z,3.20
2023-05-22T08:06:57.298Z,3.10
2023-05-22T08:09:25.560Z,3.40
2023-05-22T08:11:53.764Z,2.80
2023-05-22T08:14:23.043Z,3.10
2023-05-22T08:16:51.415Z,3.40
2023-05-22T08:19:21.268Z,2.80
2023-05-22T08:21:49.719Z,3.40
2023-05-22T08:24:18.647Z,3.40
2023-05-22T08:26:46.897Z,3.60
2023-05-22T08:29:15.632Z,3.10
2023-05-22T08:31:44.047Z,3.30
2023-05-22T08:34:12.574Z,2.30
2023-05-22T08:36:41.165Z,3.30
2023-05-22T08:39:10.183Z,3.60
2023-05-22T08:41:38.787Z,3.70
2023-05-22T08:44:07.171Z,3.30
2023-05-22T08:46:38.146Z,4.10
2023-05-22T08:49:09.232Z,2.60
2023-05-22T08:51:45.319Z,2.40
2023-05-22T08:54:18.611Z,3.70
2023-05-22T08:56:56.917Z,2.50
2023-05-22T08:59:26.203Z,2.60
2023-05-22T09:01:55.192Z,2.50
2023-05-22T09:04:25.836Z,2.30
2023-05-22T09:06:55.311Z,3.00
2023-05-22T09:09:24.042Z,2.80
2023-05-22T09:11:55.390Z,3.40
2023-05-22T09:14:25.411Z,2.60
2023-05-22T09:16:55.254Z,2.50
2023-05-22T09:19:23.776Z,3.00
2023-05-22T09:21:52.407Z,3.50
2023-05-22T09:24:21.508Z,3.80
2023-05-22T09:26:52.788Z,2.60
2023-05-22T09:29:22.560Z,2.30
2023-05-22T09:31:51.103Z,2.40
2023-05-22T09:34:19.926Z,3.10
2023-05-22T09:36:50.137Z,3.20
2023-05-22T09:39:18.468Z,2.60
2023-05-22T09:41:46.784Z,2.70
2023-05-22T09:44:24.322Z,3.50
2023-05-22T09:46:54.960Z,3.00
2023-05-22T09:49:23.413Z,2.30
2023-05-22T09:51:54.737Z,2.50
2023-05-22T09:54:26.607Z,2.50
2023-05-22T09:56:59.167Z,3.30
2023-05-22T09:59:30.547Z,2.40
2023-05-22T10:01:59.675Z,2.10
2023-05-22T10:04:33.169Z,1.90
2023-05-22T10:07:03.816Z,2.30
2023-05-22T10:09:35.927Z,2.60
2023-05-22T10:12:07.438Z,2.00
2023-05-22T10:14:36.743Z,2.50
2023-05-22T10:17:07.130Z,2.00
2023-05-22T10:19:38.704Z,2.50
2023-05-22T10:22:14.054Z,2.80
2023-05-22T10:24:43.139Z,2.40
2023-05-22T10:27:11.710Z,2.60
2023-05-22T10:30:00.971Z,2.60
2023-05-22T10:32:51.740Z,2.80
2023-05-22T10:35:44.909Z,2.20
2023-05-22T10:41:03.520Z,2.40
2023-05-22T10:43:33.015Z,2.10
2023-05-22T10:46:06.741Z,2.00
2023-05-22T10:48:46.133Z,1.40
2023-05-22T10:51:18.425Z,2.10
2023-05-22T10:53:53.432Z,2.10
2023-05-22T10:56:25.163Z,1.90
2023-05-22T10:58:59.331Z,2.30
2023-05-22T11:01:27.763Z,1.80
2023-05-22T11:04:04.685Z,1.50
2023-05-22T11:06:42.713Z,2.50
2023-05-22T11:09:31.833Z,1.80
2023-05-22T11:12:24.766Z,2.50
2023-05-22T11:17:28.238Z,1.80
2023-05-22T11:20:05.700Z,1.70
2023-05-22T11:22:41.393Z,2.00
2023-05-22T11:25:12.398Z,2.60
2023-05-22T11:27:41.559Z,1.30
2023-05-22T11:30:11.822Z,1.70
2023-05-22T11:32:44.973Z,1.70
2023-05-22T11:35:21.620Z,2.20
2023-05-22T11:37:52.058Z,2.00
2023-05-22T11:40:24.941Z,1.70
2023-05-22T11:42:54.193Z,1.70
2023-05-22T11:45:22.821Z,1.70
2023-05-22T11:47:51.613Z,1.60
2023-05-22T11:50:33.529Z,2.20
2023-05-22T11:53:08.792Z,1.80
2023-05-22T11:55:37.122Z,2.20
2023-05-22T11:58:05.811Z,2.40
2023-05-22T12:00:34.410Z,2.20
2023-05-22T12:03:03.090Z,1.80
2023-05-22T12:05:32.944Z,2.00
2023-05-22T12:08:01.624Z,2.30
2023-05-22T12:10:29.921Z,1.70
2023-05-22T12:12:58.385Z,1.80
2023-05-22T12:15:27.420Z,2.10
2023-05-22T12:17:56.662Z,1.70
2023-05-22T12:20:30.698Z,2.10
2023-05-22T12:22:59.951Z,1.80
2023-05-22T12:25:37.337Z,2.20
2023-05-22T12:28:07.519Z,1.80
2023-05-22T12:30:42.987Z,2.30
2023-05-22T12:33:17.705Z,2.40
2023-05-22T12:35:46.334Z,2.00
2023-05-22T12:38:14.758Z,1.70
2023-05-22T12:40:43.066Z,1.60
2023-05-22T12:43:11.528Z,2.70
2023-05-22T12:45:42.603Z,2.00
2023-05-22T12:48:12.349Z,1.90
2023-05-22T12:50:41.444Z,1.70
2023-05-22T12:53:10.007Z,2.20
2023-05-22T12:55:39.287Z,2.00
2023-05-22T12:58:07.871Z,2.00
2023-05-22T13:00:36.314Z,2.10
2023-05-22T13:03:06.723Z,1.90
2023-05-22T13:05:35.276Z,2.20
2023-05-22T13:08:03.856Z,2.70
2023-05-22T13:10:32.270Z,1.90
2023-05-22T13:13:01.670Z,2.00
2023-05-22T13:15:33.407Z,2.10
2023-05-22T13:18:01.640Z,2.50
2023-05-22T13:20:30.182Z,2.10
2023-05-22T13:22:59.308Z,2.10
2023-05-22T13:28:02.345Z,3.40
2023-05-22T13:30:32.296Z,2.10
2023-05-22T13:33:00.726Z,1.90
2023-05-22T13:35:28.979Z,1.70
2023-05-22T13:37:57.673Z,1.40
2023-05-22T13:40:26.084Z,2.30
2023-05-22T13:42:54.452Z,2.20
2023-05-22T13:45:25.273Z,1.80
2023-05-22T13:47:56.260Z,2.30
2023-05-22T13:50:24.969Z,2.50
2023-05-22T13:52:53.084Z,1.70
2023-05-22T13:55:21.597Z,2.80
2023-05-22T13:57:49.796Z,1.90
2023-05-22T14:00:18.969Z,1.70
2023-05-22T14:02:47.469Z,2.40
2023-05-22T14:05:15.981Z,2.40
2023-05-22T14:07:44.079Z,2.30
2023-05-22T14:10:12.400Z,1.90
2023-05-22T14:12:40.743Z,1.80
2023-05-22T14:15:09.690Z,1.80
2023-05-22T14:17:38.897Z,2.40
2023-05-22T14:20:07.936Z,1.80
2023-05-22T14:22:55.948Z,2.00
2023-05-22T14:25:26.600Z,2.00
2023-05-22T14:27:55.428Z,1.80
2023-05-22T14:30:24.653Z,3.00
2023-05-22T14:32:55.733Z,2.50
2023-05-22T14:35:24.097Z,2.10
2023-05-22T14:37:52.667Z,2.10
2023-05-22T14:40:21.217Z,1.70
2023-05-22T14:42:51.899Z,2.60
2023-05-22T14:45:22.546Z,2.00
2023-05-22T14:47:50.948Z,2.30
2023-05-22T14:50:22.833Z,1.90
2023-05-22T14:55:21.258Z,2.80
2023-05-22T14:57:49.576Z,2.30
2023-05-22T15:00:18.378Z,2.50
2023-05-22T15:02:46.951Z,1.90
2023-05-22T15:05:15.695Z,2.20
2023-05-22T15:07:45.798Z,2.00
2023-05-22T15:10:15.410Z,2.10
2023-05-22T15:12:43.688Z,2.20
2023-05-22T15:15:13.868Z,2.50
2023-05-22T15:17:43.135Z,2.60
2023-05-22T15:20:13.251Z,2.10
2023-05-22T15:22:41.709Z,2.70
2023-05-22T15:25:15.330Z,2.20
2023-05-22T15:27:44.251Z,2.20
2023-05-22T15:30:13.007Z,2.20
2023-05-22T15:32:41.223Z,2.30
2023-05-22T15:35:11.821Z,2.70
2023-05-22T15:37:40.434Z,2.70
2023-05-22T15:40:16.431Z,2.10
2023-05-22T15:42:45.111Z,3.50
2023-05-22T15:45:13.466Z,2.00
2023-05-22T15:47:43.212Z,2.50
2023-05-22T15:50:11.583Z,2.80
2023-05-22T15:52:39.862Z,2.00
2023-05-22T15:55:08.727Z,2.50
2023-05-22T15:57:37.012Z,3.00
2023-05-22T16:00:06.405Z,2.50
2023-05-22T16:02:35.051Z,2.40
2023-05-22T16:05:03.483Z,2.50
2023-05-22T16:07:31.769Z,2.10
2023-05-22T16:09:59.929Z,2.30
2023-05-22T16:12:28.311Z,2.70
2023-05-22T16:15:00.383Z,1.90
2023-05-22T16:17:29.639Z,2.90
2023-05-22T16:19:58.498Z,2.00
2023-05-22T16:22:40.097Z,2.90
2023-05-22T16:25:17.569Z,2.50
2023-05-22T16:27:46.166Z,2.10
2023-05-22T16:30:17.158Z,3.10
2023-05-22T16:32:46.678Z,2.10
2023-05-22T16:35:16.588Z,2.20
2023-05-22T16:37:45.073Z,2.30
2023-05-22T16:40:13.523Z,2.80
2023-05-22T16:42:44.359Z,2.10
2023-05-22T16:45:12.973Z,2.40
2023-05-22T16:47:42.139Z,2.10
2023-05-22T16:50:11.659Z,2.40
2023-05-22T16:52:39.854Z,2.60
2023-05-22T16:55:09.198Z,2.40
2023-05-22T16:57:37.358Z,3.40
2023-05-22T17:00:11.172Z,3.00
2023-05-22T17:02:40.330Z,4.10
2023-05-22T17:05:09.047Z,3.70
2023-05-22T17:07:37.312Z,3.50
2023-05-22T17:10:06.534Z,4.00
2023-05-22T17:12:34.801Z,5.40
2023-05-22T17:15:05.015Z,5.50
2023-05-22T17:17:33.361Z,5.40
2023-05-22T17:20:02.401Z,5.50
2023-05-22T17:22:31.094Z,5.30
2023-05-22T17:24:59.556Z,5.30
2023-05-22T17:27:35.672Z,5.90
2023-05-22T17:30:07.596Z,6.30
2023-05-22T17:32:36.377Z,6.00
2023-05-22T17:35:06.920Z,6.40
2023-05-22T17:37:35.518Z,5.60
2023-05-22T17:40:05.024Z,6.50
2023-05-22T17:42:33.354Z,5.70
2023-05-22T17:45:01.595Z,5.50
2023-05-22T17:47:29.889Z,5.40
2023-05-22T17:49:58.317Z,5.70
2023-05-22T17:52:26.977Z,5.70
2023-05-22T17:54:56.362Z,5.30
2023-05-22T17:57:24.769Z,5.60
2023-05-22T17:59:52.954Z,5.70
2023-05-22T18:02:21.460Z,5.40
2023-05-22T18:04:50.019Z,6.50
2023-05-22T18:07:20.013Z,5.10
2023-05-22T18:09:48.404Z,4.90
2023-05-22T18:12:31.190Z,5.10
2023-05-22T18:17:28.401Z,4.60
2023-05-22T18:19:56.753Z,5.00
2023-05-22T18:22:25.942Z,5.40
2023-05-22T18:24:54.813Z,4.60
2023-05-22T18:27:23.273Z,4.30
2023-05-22T18:29:52.017Z,4.90
2023-05-22T18:32:20.338Z,5.00
2023-05-22T18:34:49.156Z,6.40
2023-05-22T18:37:19.015Z,4.30
2023-05-22T18:39:47.902Z,4.90
2023-05-22T18:42:16.219Z,5.30
2023-05-22T18:44:45.725Z,3.80
2023-05-22T18:47:15.959Z,3.90
2023-05-22T18:49:44.875Z,4.00
2023-05-22T18:52:13.202Z,4.20
2023-05-22T18:54:44.539Z,5.10
2023-05-22T18:57:12.783Z,4.30
2023-05-22T18:59:42.498Z,4.70
2023-05-22T19:02:16.714Z,4.60
2023-05-22T19:04:45.893Z,4.50
2023-05-22T19:07:14.720Z,4.20
2023-05-22T19:09:43.401Z,4.20
2023-05-22T19:12:12.230Z,4.00
2023-05-22T19:14:40.797Z,4.50
2023-05-22T19:17:10.301Z,4.20
2023-05-22T19:19:38.547Z,4.40
2023-05-22T19:22:07.372Z,5.10
2023-05-22T19:24:36.694Z,4.80
2023-05-22T19:27:05.208Z,3.80
2023-05-22T19:29:33.860Z,4.60
2023-05-22T19:32:02.342Z,4.30
2023-05-22T19:34:30.604Z,4.20
2023-05-22T19:36:58.910Z,4.30
2023-05-22T19:39:27.815Z,3.90
2023-05-22T19:41:56.189Z,4.10
2023-05-22T19:44:24.782Z,4.80
2023-05-22T19:46:53.711Z,4.90
2023-05-22T19:49:22.159Z,6.20
2023-05-22T19:51:50.466Z,4.70
2023-05-22T19:54:18.997Z,6.00
2023-05-22T19:56:47.371Z,5.80
2023-05-22T19:59:15.598Z,5.10
2023-05-22T20:01:44.153Z,5.00
2023-05-22T20:04:12.573Z,5.00
2023-05-22T20:06:42.389Z,5.40
2023-05-22T20:09:11.484Z,5.70
2023-05-22T20:11:39.772Z,5.60
2023-05-22T20:14:08.460Z,5.20
2023-05-22T20:16:36.770Z,6.70
2023-05-22T20:19:05.377Z,5.90
2023-05-22T20:21:33.913Z,6.50
2023-05-22T20:24:06.145Z,7.10
2023-05-22T20:26:34.339Z,6.30
2023-05-22T20:29:02.658Z,6.30
2023-05-22T20:31:31.871Z,6.30
2023-05-22T20:34:02.089Z,5.00
2023-05-22T20:36:30.779Z,6.00
2023-05-22T20:38:59.097Z,5.80
2023-05-22T20:41:27.806Z,4.90
2023-05-22T20:43:56.373Z,4.70
2023-05-22T20:46:26.483Z,4.80
2023-05-22T20:48:54.876Z,4.60
2023-05-22T20:51:26.314Z,4.80
2023-05-22T20:53:54.724Z,5.10
2023-05-22T20:56:23.072Z,4.50
2023-05-22T20:58:51.566Z,5.20
2023-05-22T21:01:19.740Z,5.30
2023-05-22T21:03:50.071Z,4.80
2023-05-22T21:06:21.643Z,4.70
2023-05-22T21:08:52.003Z,4.80
2023-05-22T21:11:21.722Z,4.30
2023-05-22T21:13:50.047Z,4.90
2023-05-22T21:16:18.376Z,4.70
2023-05-22T21:18:46.866Z,4.30
2023-05-22T21:21:16.743Z,4.50
2023-05-22T21:23:45.124Z,4.60
2023-05-22T21:26:13.822Z,4.70
2023-05-22T21:28:43.083Z,4.50
2023-05-22T21:31:11.616Z,4.80
2023-05-22T21:33:39.940Z,5.30
2023-05-22T21:36:08.073Z,5.10
2023-05-22T21:38:36.184Z,5.00
2023-05-22T21:41:04.365Z,4.70
2023-05-22T21:43:32.624Z,4.80
2023-05-22T21:46:00.678Z,5.10
2023-05-22T21:48:29.599Z,4.80
2023-05-22T21:50:58.891Z,5.30
2023-05-22T21:53:27.380Z,5.30
2023-05-22T21:55:55.662Z,4.40
2023-05-22T21:58:24.149Z,4.30
2023-05-22T22:00:52.338Z,4.70
2023-05-22T22:03:21.167Z,4.20
2023-05-22T22:05:49.614Z,5.10
2023-05-22T22:08:18.029Z,6.00
2023-05-22T22:10:46.483Z,6.40
2023-05-22T22:13:15.679Z,4.70
2023-05-22T22:15:43.894Z,4.80
2023-05-22T22:18:15.236Z,5.50
2023-05-22T22:20:45.566Z,5.20
2023-05-22T22:23:14.234Z,5.00
2023-05-22T22:25:42.854Z,5.20
2023-05-22T22:28:11.826Z,5.90
2023-05-22T22:30:40.453Z,6.10
2023-05-22T22:33:09.127Z,5.80
2023-05-22T22:35:38.093Z,5.80
2023-05-22T22:38:06.568Z,5.70
2023-05-22T22:40:34.878Z,5.70
2023-05-22T22:43:03.995Z,5.70
2023-05-22T22:45:32.459Z,6.30
2023-05-22T22:48:00.932Z,6.10
2023-05-22T22:50:29.942Z,5.80
2023-05-22T22:52:58.355Z,6.40
2023-05-22T22:55:26.819Z,6.00
2023-05-22T22:57:55.310Z,6.00
2023-05-22T23:00:23.950Z,5.70
2023-05-22T23:02:52.301Z,6.10
2023-05-22T23:05:21.112Z,5.40
2023-05-22T23:07:49.436Z,6.10
2023-05-22T23:10:17.874Z,5.60
2023-05-22T23:12:48.180Z,5.00
2023-05-22T23:15:16.491Z,5.70
2023-05-22T23:17:44.954Z,5.60
2023-05-22T23:20:13.849Z,5.20
2023-05-22T23:22:43.349Z,5.80
2023-05-22T23:25:11.560Z,5.30
2023-05-22T23:27:40.522Z,5.20
2023-05-22T23:30:10.156Z,5.30
2023-05-22T23:32:38.456Z,5.00
2023-05-22T23:35:07.213Z,4.80
2023-05-22T23:37:35.801Z,5.00
2023-05-22T23:40:05.961Z,5.00
2023-05-22T23:42:35.995Z,5.40
2023-05-22T23:45:07.644Z,4.50
2023-05-22T23:47:36.101Z,6.40
2023-05-22T23:50:05.036Z,4.70
2023-05-22T23:52:33.268Z,4.90
2023-05-22T23:55:01.759Z,5.50
2023-05-22T23:57:30.049Z,5.10
2023-05-22T23:59:58.245Z,4.90
